createdAt,value
2022-11-15T00:01:46.199Z,31.35
2022-11-15T00:04:53.878Z,33.95
2022-11-15T00:08:01.411Z,33.63
2022-11-15T00:11:08.530Z,30.48
2022-11-15T00:14:17.244Z,30.73
2022-11-15T00:17:24.280Z,32.03
2022-11-15T00:20:31.250Z,30.70
2022-11-15T00:23:38.615Z,31.90
2022-11-15T00:26:45.956Z,34.30
2022-11-15T00:29:54.365Z,33.15
2022-11-15T00:33:05.053Z,33.28
2022-11-15T00:36:13.093Z,31.52
2022-11-15T00:39:20.313Z,37.28
2022-11-15T00:42:27.584Z,39.35
2022-11-15T00:45:36.363Z,37.13
2022-11-15T00:48:43.202Z,36.67
2022-11-15T00:51:50.449Z,41.85
2022-11-15T00:54:58.065Z,38.58
2022-11-15T00:58:05.681Z,40.58
2022-11-15T01:01:16.604Z,45.65
2022-11-15T01:04:23.750Z,41.75
2022-11-15T01:07:30.984Z,39.92
2022-11-15T01:10:39.472Z,42.05
2022-11-15T01:13:46.775Z,43.88
2022-11-15T01:16:55.302Z,40.85
2022-11-15T01:20:02.634Z,44.50
2022-11-15T01:23:10.058Z,47.33
2022-11-15T01:26:18.234Z,46.90
2022-11-15T01:29:25.017Z,47.80
2022-11-15T01:32:33.650Z,41.25
2022-11-15T01:35:42.079Z,47.13
2022-11-15T01:38:49.472Z,43.50
2022-11-15T01:41:56.952Z,48.47
2022-11-15T01:45:04.341Z,45.70
2022-11-15T01:48:13.007Z,51.15
2022-11-15T01:51:22.498Z,51.35
2022-11-15T01:54:30.196Z,46.90
2022-11-15T01:57:37.630Z,46.63
2022-11-15T02:00:45.033Z,48.83
2022-11-15T02:03:58.721Z,46.67
2022-11-15T02:07:08.479Z,45.28
2022-11-15T02:10:20.503Z,48.95
2022-11-15T02:13:27.671Z,48.08
2022-11-15T02:16:45.308Z,44.00
2022-11-15T02:20:34.674Z,44.53
2022-11-15T02:24:24.146Z,46.35
2022-11-15T02:27:48.743Z,42.97
2022-11-15T02:31:01.480Z,44.70
2022-11-15T02:34:15.344Z,45.97
2022-11-15T02:37:30.077Z,43.15
2022-11-15T02:40:47.012Z,43.08
2022-11-15T02:43:57.831Z,48.72
2022-11-15T02:47:17.153Z,45.45
2022-11-15T02:50:28.140Z,50.13
2022-11-15T02:53:39.314Z,51.58
2022-11-15T02:56:48.650Z,47.92
2022-11-15T03:00:06.912Z,46.63
2022-11-15T03:03:37.644Z,51.40
2022-11-15T03:06:53.178Z,56.22
2022-11-15T03:10:07.471Z,53.72
2022-11-15T03:13:23.331Z,59.28
2022-11-15T03:16:36.356Z,52.33
2022-11-15T03:19:47.395Z,57.17
2022-11-15T03:22:57.998Z,53.60
2022-11-15T03:26:09.296Z,56.08
2022-11-15T03:29:19.447Z,54.17
2022-11-15T03:32:31.606Z,54.83
2022-11-15T03:35:44.741Z,56.67
2022-11-15T03:38:54.386Z,57.42
2022-11-15T03:42:11.298Z,54.35
2022-11-15T03:45:21.488Z,56.83
2022-11-15T03:48:33.578Z,55.38
2022-11-15T03:51:42.519Z,55.92
2022-11-15T03:54:54.669Z,62.70
2022-11-15T03:58:03.130Z,61.30
2022-11-15T04:01:10.424Z,61.47
2022-11-15T04:04:17.634Z,55.88
2022-11-15T04:07:26.150Z,48.63
2022-11-15T04:10:33.289Z,54.75
2022-11-15T04:13:40.266Z,56.72
2022-11-15T04:16:47.339Z,55.13
2022-11-15T04:20:11.991Z,58.55
2022-11-15T04:23:39.359Z,59.42
2022-11-15T04:26:46.311Z,53.35
2022-11-15T04:29:53.555Z,52.95
2022-11-15T04:33:00.309Z,57.17
2022-11-15T04:36:25.665Z,59.30
2022-11-15T04:39:33.928Z,57.45
2022-11-15T04:42:43.614Z,53.45
2022-11-15T04:45:50.900Z,54.55
2022-11-15T04:48:59.118Z,54.45
2022-11-15T04:52:06.703Z,55.53
2022-11-15T04:55:15.522Z,56.55
2022-11-15T04:58:23.221Z,57.25
2022-11-15T05:01:30.521Z,58.22
2022-11-15T05:04:36.910Z,56.10
2022-11-15T05:07:44.238Z,53.75
2022-11-15T05:10:53.163Z,59.67
2022-11-15T05:14:00.335Z,66.38
2022-11-15T05:17:07.133Z,60.42
2022-11-15T05:20:14.541Z,58.72
2022-11-15T05:23:21.569Z,57.08
2022-11-15T05:26:30.491Z,52.25
2022-11-15T05:29:37.803Z,63.55
2022-11-15T05:32:45.564Z,64.68
2022-11-15T05:36:01.163Z,61.60
2022-11-15T05:39:10.247Z,60.08
2022-11-15T05:42:19.847Z,58.85
2022-11-15T05:45:27.326Z,61.38
2022-11-15T05:48:36.668Z,59.95
2022-11-15T05:51:46.786Z,64.35
2022-11-15T05:54:55.145Z,66.68
2022-11-15T05:58:04.397Z,61.67
2022-11-15T06:01:11.832Z,57.90
2022-11-15T06:04:18.736Z,57.73
2022-11-15T06:07:25.873Z,48.38
2022-11-15T06:10:33.135Z,54.03
2022-11-15T06:13:41.860Z,57.53
2022-11-15T06:16:49.296Z,58.80
2022-11-15T06:19:56.868Z,60.33
2022-11-15T06:23:06.246Z,59.85
2022-11-15T06:26:13.146Z,59.17
2022-11-15T06:29:21.432Z,60.63
2022-11-15T06:32:28.272Z,60.70
2022-11-15T06:35:36.566Z,62.97
2022-11-15T06:38:43.815Z,66.63
2022-11-15T06:41:50.832Z,64.13
2022-11-15T06:44:59.382Z,64.50
2022-11-15T06:48:07.452Z,55.30
2022-11-15T06:51:14.487Z,53.03
2022-11-15T06:54:22.153Z,55.08
2022-11-15T06:57:29.263Z,55.33
2022-11-15T07:00:38.105Z,52.50
2022-11-15T07:03:47.195Z,49.25
2022-11-15T07:06:54.194Z,53.15
2022-11-15T07:10:01.665Z,58.25
2022-11-15T07:13:08.550Z,50.53
2022-11-15T07:16:16.865Z,50.35
2022-11-15T07:19:26.761Z,48.22
2022-11-15T07:22:33.943Z,50.88
2022-11-15T07:25:41.222Z,47.70
2022-11-15T07:28:48.559Z,46.38
2022-11-15T07:31:57.302Z,43.55
2022-11-15T07:35:04.345Z,39.27
2022-11-15T07:38:11.567Z,40.40
2022-11-15T07:41:18.364Z,39.07
2022-11-15T07:44:25.945Z,39.80
2022-11-15T07:47:34.667Z,36.55
2022-11-15T07:50:44.208Z,38.78
2022-11-15T07:53:51.323Z,51.92
2022-11-15T07:57:03.872Z,35.67
2022-11-15T08:00:15.568Z,44.67
2022-11-15T08:03:23.729Z,39.67
2022-11-15T08:06:31.248Z,36.60
2022-11-15T08:09:38.053Z,34.67
2022-11-15T08:12:45.346Z,37.93
2022-11-15T08:15:57.571Z,39.27
2022-11-15T08:19:06.641Z,39.35
2022-11-15T08:22:13.909Z,34.63
2022-11-15T08:25:20.919Z,37.10
2022-11-15T08:28:28.467Z,42.42
2022-11-15T08:31:39.231Z,42.80
2022-11-15T08:34:47.965Z,43.90
2022-11-15T08:37:55.615Z,42.30
2022-11-15T08:41:04.619Z,40.53
2022-11-15T08:44:11.823Z,41.85
2022-11-15T08:47:18.751Z,43.97
2022-11-15T08:50:27.593Z,42.93
2022-11-15T08:53:35.764Z,38.67
2022-11-15T08:56:42.768Z,42.47
2022-11-15T08:59:49.887Z,39.10
2022-11-15T09:02:57.576Z,38.60
2022-11-15T09:06:10.217Z,38.75
2022-11-15T09:09:17.306Z,48.35
2022-11-15T09:12:24.590Z,42.47
2022-11-15T09:15:31.807Z,38.28
2022-11-15T09:18:38.951Z,39.25
2022-11-15T09:21:47.375Z,37.67
2022-11-15T09:24:54.258Z,41.47
2022-11-15T09:28:01.362Z,40.38
2022-11-15T09:31:08.800Z,36.05
2022-11-15T09:34:16.432Z,36.35
2022-11-15T09:37:24.763Z,39.25
2022-11-15T09:40:33.300Z,43.22
2022-11-15T09:43:50.201Z,41.20
2022-11-15T09:47:05.868Z,43.28
2022-11-15T09:50:34.379Z,45.00
2022-11-15T09:54:13.519Z,41.80
2022-11-15T09:56:43.661Z,41.38
2022-11-15T09:59:48.623Z,44.40
2022-11-15T10:02:54.344Z,45.03
2022-11-15T10:05:44.563Z,42.25
2022-11-15T10:08:49.492Z,44.80
2022-11-15T10:11:39.902Z,44.70
2022-11-15T10:14:32.274Z,46.10
2022-11-15T10:17:38.295Z,46.65
2022-11-15T10:20:28.658Z,51.00
2022-11-15T10:23:19.174Z,51.47
2022-11-15T10:26:17.160Z,45.05
2022-11-15T10:29:05.847Z,44.47
2022-11-15T10:31:54.523Z,44.30
2022-11-15T10:34:43.729Z,50.85
2022-11-15T10:37:34.152Z,46.00
2022-11-15T10:40:24.752Z,46.42
2022-11-15T10:43:19.919Z,49.63
2022-11-15T10:46:45.236Z,42.70
2022-11-15T10:49:32.292Z,46.10
2022-11-15T10:52:23.345Z,47.17
2022-11-15T10:55:26.283Z,41.65
2022-11-15T10:58:33.432Z,41.30
2022-11-15T11:01:25.448Z,45.20
2022-11-15T11:04:14.114Z,43.33
2022-11-15T11:07:02.636Z,41.00
2022-11-15T11:10:00.323Z,42.47
2022-11-15T11:12:48.899Z,41.42
2022-11-15T11:15:39.030Z,42.15
2022-11-15T11:18:34.467Z,44.22
2022-11-15T11:21:35.383Z,41.65
2022-11-15T11:24:36.612Z,45.42
2022-11-15T11:27:39.141Z,45.42
2022-11-15T11:30:42.418Z,48.83
2022-11-15T11:33:34.833Z,46.53
2022-11-15T11:36:29.452Z,45.40
2022-11-15T11:39:30.394Z,48.58
2022-11-15T11:42:28.320Z,45.58
2022-11-15T11:45:23.952Z,48.47
2022-11-15T11:48:15.874Z,47.45
2022-11-15T11:51:18.011Z,48.47
2022-11-15T11:54:14.644Z,47.40
2022-11-15T11:57:08.660Z,48.92
2022-11-15T12:00:03.478Z,46.65
2022-11-15T12:03:11.453Z,49.03
2022-11-15T12:06:04.014Z,48.88
2022-11-15T12:09:00.348Z,52.30
2022-11-15T12:11:57.064Z,49.70
2022-11-15T12:14:53.913Z,46.60
2022-11-15T12:17:43.692Z,52.67
2022-11-15T12:20:35.954Z,50.67
2022-11-15T12:23:30.247Z,54.30
2022-11-15T12:26:23.137Z,47.53
2022-11-15T12:29:18.932Z,51.58
2022-11-15T12:32:17.230Z,49.20
2022-11-15T12:35:08.168Z,59.83
2022-11-15T12:37:57.866Z,49.40
2022-11-15T12:41:18.142Z,51.85
2022-11-15T12:44:14.383Z,51.15
2022-11-15T12:47:06.627Z,51.55
2022-11-15T12:49:55.880Z,51.15
2022-11-15T12:53:14.127Z,47.80
2022-11-15T12:56:23.321Z,54.85
2022-11-15T12:59:33.262Z,52.20
2022-11-15T13:02:24.168Z,54.72
2022-11-15T13:06:02.896Z,52.90
2022-11-15T13:08:52.823Z,57.38
2022-11-15T13:11:49.964Z,61.15
2022-11-15T13:14:52.963Z,58.28
2022-11-15T13:17:42.499Z,57.72
2022-11-15T13:20:32.560Z,58.33
2022-11-15T13:23:23.521Z,64.07
2022-11-15T13:26:17.661Z,61.05
2022-11-15T13:29:08.099Z,56.97
2022-11-15T13:31:58.020Z,54.78
2022-11-15T13:34:52.722Z,59.08
2022-11-15T13:37:41.568Z,60.90
2022-11-15T13:40:36.040Z,57.53
2022-11-15T13:43:42.496Z,63.67
2022-11-15T13:46:33.737Z,67.18
2022-11-15T13:49:32.212Z,58.83
2022-11-15T13:52:21.263Z,58.78
2022-11-15T13:55:15.563Z,55.00
2022-11-15T13:58:10.284Z,62.42
2022-11-15T14:01:04.336Z,62.45
2022-11-15T14:03:56.831Z,53.60
2022-11-15T14:06:53.027Z,63.22
2022-11-15T14:09:42.219Z,62.03
2022-11-15T14:12:33.136Z,59.72
2022-11-15T14:15:30.526Z,58.45
2022-11-15T14:18:44.553Z,60.78
2022-11-15T14:21:33.729Z,59.33
2022-11-15T14:24:24.778Z,55.50
2022-11-15T14:27:21.828Z,56.75
2022-11-15T14:30:16.123Z,55.67
2022-11-15T14:33:19.506Z,62.95
2022-11-15T14:36:13.414Z,61.28
2022-11-15T14:39:02.432Z,62.20
2022-11-15T14:41:52.635Z,56.55
2022-11-15T14:44:45.767Z,60.58
2022-11-15T14:47:34.768Z,62.72
2022-11-15T14:50:24.228Z,65.03
2022-11-15T14:53:15.258Z,66.70
2022-11-15T14:56:03.825Z,68.47
2022-11-15T14:58:56.067Z,65.07
2022-11-15T15:01:44.720Z,66.35
2022-11-15T15:04:33.456Z,67.80
2022-11-15T15:07:22.546Z,68.00
2022-11-15T15:10:38.457Z,63.22
2022-11-15T15:13:22.840Z,58.65
2022-11-15T15:16:13.038Z,64.25
2022-11-15T15:19:26.687Z,64.00
2022-11-15T15:22:17.751Z,69.93
2022-11-15T15:25:21.077Z,65.50
2022-11-15T15:28:09.695Z,69.28
2022-11-15T15:30:58.580Z,64.85
2022-11-15T15:33:48.500Z,81.28
2022-11-15T15:36:37.121Z,84.78
2022-11-15T15:39:25.671Z,78.97
2022-11-15T15:42:14.195Z,74.63
2022-11-15T15:45:02.709Z,78.90
2022-11-15T15:47:53.167Z,71.18
2022-11-15T15:50:44.173Z,71.88
2022-11-15T15:53:32.654Z,70.15
2022-11-15T15:56:21.161Z,77.82
2022-11-15T15:59:09.815Z,67.60
2022-11-15T16:01:58.389Z,72.60
2022-11-15T16:04:46.973Z,61.72
2022-11-15T16:07:37.559Z,65.10
2022-11-15T16:10:28.396Z,67.35
2022-11-15T16:13:17.376Z,66.97
2022-11-15T16:16:11.481Z,68.25
2022-11-15T16:19:01.816Z,70.80
2022-11-15T16:21:50.505Z,68.57
2022-11-15T16:24:40.624Z,66.18
2022-11-15T16:27:29.230Z,68.80
2022-11-15T16:30:20.519Z,69.47
2022-11-15T16:33:09.247Z,77.72
2022-11-15T16:35:57.916Z,71.30
2022-11-15T16:38:46.428Z,69.97
2022-11-15T16:41:36.554Z,77.60
2022-11-15T16:44:25.876Z,74.88
2022-11-15T16:47:20.271Z,71.10
2022-11-15T16:50:12.536Z,75.93
2022-11-15T16:53:01.771Z,74.38
2022-11-15T16:55:50.744Z,70.35
2022-11-15T16:58:40.831Z,68.93
2022-11-15T17:01:32.012Z,63.25
2022-11-15T17:04:22.790Z,66.05
2022-11-15T17:07:11.478Z,63.22
2022-11-15T17:10:00.834Z,62.15
2022-11-15T17:12:49.949Z,65.00
2022-11-15T17:15:39.881Z,68.03
2022-11-15T17:18:28.349Z,65.87
2022-11-15T17:21:19.604Z,69.55
2022-11-15T17:24:08.482Z,66.38
2022-11-15T17:26:57.221Z,70.72
2022-11-15T17:29:45.915Z,70.53
2022-11-15T17:32:37.116Z,76.97
2022-11-15T17:35:25.819Z,78.57
2022-11-15T17:38:14.505Z,77.40
2022-11-15T17:41:04.686Z,85.28
2022-11-15T17:43:53.451Z,76.17
2022-11-15T17:46:42.014Z,84.40
2022-11-15T17:49:31.952Z,82.23
2022-11-15T17:52:20.441Z,74.93
2022-11-15T17:55:09.610Z,79.90
2022-11-15T17:57:58.347Z,75.75
2022-11-15T18:00:47.292Z,68.90
2022-11-15T18:03:37.179Z,71.20
2022-11-15T18:06:28.645Z,68.72
2022-11-15T18:09:17.194Z,71.67
2022-11-15T18:12:07.036Z,68.15
2022-11-15T18:14:55.547Z,69.50
2022-11-15T18:17:44.107Z,72.85
2022-11-15T18:20:32.869Z,77.45
2022-11-15T18:23:22.731Z,70.40
2022-11-15T18:26:13.491Z,70.68
2022-11-15T18:29:05.627Z,68.15
2022-11-15T18:31:56.283Z,74.82
2022-11-15T18:34:45.130Z,61.20
2022-11-15T18:37:33.889Z,64.05
2022-11-15T18:40:23.772Z,63.40
2022-11-15T18:43:12.364Z,67.72
2022-11-15T18:46:04.455Z,59.78
2022-11-15T18:48:54.865Z,54.55
2022-11-15T18:51:44.089Z,54.90
2022-11-15T18:54:33.233Z,52.97
2022-11-15T18:57:23.250Z,49.00
2022-11-15T19:00:13.458Z,50.95
2022-11-15T19:03:01.918Z,43.83
2022-11-15T19:05:50.480Z,45.78
2022-11-15T19:08:40.238Z,47.65
2022-11-15T19:11:31.313Z,49.23
2022-11-15T19:14:24.476Z,49.20
2022-11-15T19:17:13.078Z,47.15
2022-11-15T19:20:01.815Z,47.47
2022-11-15T19:22:50.624Z,44.78
2022-11-15T19:25:39.278Z,44.03
2022-11-15T19:28:28.538Z,48.73
2022-11-15T19:31:19.539Z,50.47
2022-11-15T19:34:09.262Z,44.63
2022-11-15T19:36:58.819Z,48.08
2022-11-15T19:39:47.388Z,48.65
2022-11-15T19:42:36.012Z,47.07
2022-11-15T19:45:24.554Z,49.10
2022-11-15T19:48:14.596Z,46.47
2022-11-15T19:51:05.183Z,43.40
2022-11-15T19:53:55.513Z,45.80
2022-11-15T19:56:44.225Z,45.83
2022-11-15T19:59:32.916Z,44.45
2022-11-15T20:02:24.647Z,42.67
2022-11-15T20:05:18.379Z,44.87
2022-11-15T20:08:07.788Z,44.23
2022-11-15T20:10:56.361Z,42.57
2022-11-15T20:13:45.173Z,39.17
2022-11-15T20:16:33.813Z,34.63
2022-11-15T20:19:22.521Z,38.28
2022-11-15T20:22:12.374Z,39.22
2022-11-15T20:25:00.906Z,41.92
2022-11-15T20:27:49.456Z,43.27
2022-11-15T20:30:38.395Z,38.67
2022-11-15T20:33:27.170Z,45.10
2022-11-15T20:36:17.036Z,35.97
2022-11-15T20:39:07.529Z,40.45
2022-11-15T20:41:56.126Z,39.17
2022-11-15T20:44:44.727Z,35.22
2022-11-15T20:47:33.439Z,38.00
2022-11-15T20:50:41.664Z,37.10
2022-11-15T20:53:31.710Z,36.28
2022-11-15T20:56:23.313Z,32.38
2022-11-15T20:59:13.198Z,34.88
2022-11-15T21:02:02.639Z,33.42
2022-11-15T21:04:51.326Z,31.97
2022-11-15T21:07:40.994Z,38.00
2022-11-15T21:10:49.308Z,34.53
2022-11-15T21:13:40.001Z,35.13
2022-11-15T21:16:28.641Z,30.45
2022-11-15T21:19:17.230Z,33.80
2022-11-15T21:22:07.510Z,29.40
2022-11-15T21:24:59.137Z,29.57
2022-11-15T21:27:47.689Z,29.17
2022-11-15T21:30:37.744Z,26.73
2022-11-15T21:33:28.402Z,24.65
2022-11-15T21:36:17.328Z,24.57
2022-11-15T21:39:06.405Z,24.92
2022-11-15T21:41:55.208Z,27.13
2022-11-15T21:44:43.986Z,30.15
2022-11-15T21:47:34.008Z,25.48
2022-11-15T21:50:22.479Z,23.02
2022-11-15T21:53:11.020Z,25.20
2022-11-15T21:56:00.689Z,22.98
2022-11-15T21:58:49.296Z,24.85
2022-11-15T22:01:55.366Z,28.37
2022-11-15T22:04:45.433Z,27.73
2022-11-15T22:07:34.073Z,28.07
2022-11-15T22:10:22.742Z,26.63
2022-11-15T22:13:11.325Z,29.17
2022-11-15T22:15:59.910Z,27.58
2022-11-15T22:18:48.550Z,26.87
2022-11-15T22:21:39.949Z,28.67
2022-11-15T22:24:28.513Z,29.07
2022-11-15T22:27:17.140Z,29.50
2022-11-15T22:30:07.342Z,29.83
2022-11-15T22:32:55.888Z,31.50
2022-11-15T22:35:44.661Z,28.77
2022-11-15T22:38:35.165Z,29.13
2022-11-15T22:41:24.166Z,30.77
2022-11-15T22:44:12.770Z,32.83
2022-11-15T22:47:01.403Z,27.50
2022-11-15T22:49:53.715Z,36.03
2022-11-15T22:52:42.476Z,28.50
2022-11-15T22:55:32.395Z,34.00
2022-11-15T22:58:21.633Z,30.80
2022-11-15T23:01:22.228Z,33.00
2022-11-15T23:04:10.843Z,34.73
2022-11-15T23:06:59.453Z,33.03
2022-11-15T23:09:52.257Z,35.93
2022-11-15T23:12:59.952Z,33.57
2022-11-15T23:16:09.980Z,34.90
2022-11-15T23:18:59.986Z,36.38
2022-11-15T23:22:06.222Z,33.23
2022-11-15T23:24:55.985Z,33.40
2022-11-15T23:27:45.997Z,34.28
2022-11-15T23:30:53.440Z,39.07
2022-11-15T23:34:00.589Z,36.25
2022-11-15T23:36:52.481Z,31.40
2022-11-15T23:39:41.018Z,34.17
2022-11-15T23:42:29.583Z,35.80
2022-11-15T23:45:19.710Z,37.03
2022-11-15T23:48:08.479Z,35.03
2022-11-15T23:50:57.136Z,38.00
2022-11-15T23:53:45.929Z,34.92
2022-11-15T23:56:35.167Z,35.50
2022-11-15T23:59:24.032Z,33.13
